Time;durP1;ratioP1;P1;durP2;ratioP2;P2;SDS_P1;SDS_P2;PMS_P1;PMS_P2;Temp;Humidity;BMP_temperature;BMP_pressure;BME280_temperature;BME280_humidity;BME280_pressure;Samples;Min_cycle;Max_cycle;Signal;HPM_P1;HPM_P2
2023/12/02 00:01:33;;;;;;;6.88;2.80;;;537.60;1792.00;;;;;;5069416;28;20050;-64
2023/12/02 00:03:59;;;;;;;7.43;3.47;;;512.90;1766.40;;;;;;5066836;28;20099;-62
2023/12/02 00:06:25;;;;;;;9.32;2.72;;;512.90;1766.40;;;;;;5068101;28;20024;-63
2023/12/02 00:08:50;;;;;;;6.78;2.92;;;512.90;1740.80;;;;;;5069381;28;20154;-64
2023/12/02 00:11:16;;;;;;;6.70;3.45;;;512.90;1766.40;;;;;;5068073;28;20056;-65
2023/12/02 00:13:42;;;;;;;6.75;3.22;;;512.90;1740.80;;;;;;5069346;28;20032;-63
2023/12/02 00:16:08;;;;;;;5.00;2.90;;;512.90;1740.80;;;;;;5069554;28;20029;-62
2023/12/02 00:18:34;;;;;;;10.85;3.55;;;537.60;1740.80;;;;;;5068537;28;20750;-63
2023/12/02 00:21:00;;;;;;;7.10;2.50;;;512.90;1740.80;;;;;;5069086;28;20050;-64
2023/12/02 00:23:26;;;;;;;5.38;2.70;;;537.60;1766.40;;;;;;5068752;28;20119;-63
2023/12/02 00:25:51;;;;;;;5.88;2.58;;;537.80;1715.20;;;;;;5068067;28;20058;-63
2023/12/02 00:28:17;;;;;;;6.43;2.50;;;537.70;1740.80;;;;;;5069426;28;20059;-62
2023/12/02 00:30:43;;;;;;;5.22;3.33;;;537.80;1740.80;;;;;;5069165;28;20027;-63
2023/12/02 00:33:08;;;;;;;7.55;2.75;;;537.90;1715.20;;;;;;5068700;28;20027;-64
2023/12/02 00:35:34;;;;;;;6.60;3.53;;;537.90;1715.20;;;;;;5068151;28;20335;-63
2023/12/02 00:38:00;;;;;;;8.93;3.38;;;537.90;1740.80;;;;;;5068392;28;20039;-65
2023/12/02 00:40:29;;;;;;;7.38;2.63;;;537.90;1715.20;;;;;;5069029;28;20040;-63
2023/12/02 00:42:54;;;;;;;6.68;3.20;;;538.00;1715.20;;;;;;5065221;28;20094;-65
2023/12/02 00:45:20;;;;;;;7.85;3.60;;;537.90;1740.80;;;;;;5067974;28;20111;-65
2023/12/02 00:47:46;;;;;;;4.40;2.50;;;537.90;1715.20;;;;;;5068153;28;20386;-63
2023/12/02 00:50:11;;;;;;;14.02;4.35;;;537.80;1740.80;;;;;;5067406;28;20151;-64
2023/12/02 00:52:37;;;;;;;13.63;3.25;;;537.70;1740.80;;;;;;5068624;28;20035;-64
2023/12/02 00:55:03;;;;;;;6.88;3.03;;;537.60;1766.40;;;;;;5068818;28;20020;-64
2023/12/02 00:57:29;;;;;;;6.80;3.25;;;537.60;1766.40;;;;;;5068616;28;20028;-64
2023/12/02 00:59:55;;;;;;;13.25;3.53;;;512.90;1740.80;;;;;;5058024;28;20102;-63
2023/12/02 01:02:21;;;;;;;9.77;2.88;;;512.90;1766.40;;;;;;5067849;28;20608;-64
2023/12/02 01:04:46;;;;;;;8.98;2.85;;;512.90;1766.40;;;;;;5068679;28;20032;-63
2023/12/02 01:07:12;;;;;;;8.93;3.33;;;512.80;1766.40;;;;;;5068988;28;20054;-64
2023/12/02 01:09:38;;;;;;;8.23;3.83;;;512.80;1792.00;;;;;;5068662;28;20463;-64
2023/12/02 01:12:04;;;;;;;15.70;3.42;;;512.70;1792.00;;;;;;5063262;28;20053;-64
2023/12/02 01:14:29;;;;;;;8.73;3.08;;;512.70;1792.00;;;;;;5068613;28;20029;-64
2023/12/02 01:16:55;;;;;;;9.45;2.53;;;512.80;1792.00;;;;;;5068902;28;20024;-63
2023/12/02 01:19:21;;;;;;;7.28;3.38;;;512.90;1766.40;;;;;;5068531;28;20040;-63
2023/12/02 01:21:47;;;;;;;10.32;3.40;;;512.90;1766.40;;;;;;5068796;28;20048;-63
2023/12/02 01:24:14;;;;;;;11.68;2.33;;;512.90;1766.40;;;;;;5067668;28;20143;-64
2023/12/02 01:26:40;;;;;;;8.82;3.30;;;537.60;1792.00;;;;;;5068628;28;20085;-63
2023/12/02 01:29:06;;;;;;;6.15;3.53;;;537.70;1766.40;;;;;;5068635;28;20467;-63
2023/12/02 01:31:31;;;;;;;7.20;3.17;;;537.70;1792.00;;;;;;5068632;28;20033;-63
2023/12/02 01:33:57;;;;;;;10.23;4.05;;;537.90;1766.40;;;;;;5068510;28;20017;-62
2023/12/02 01:36:23;;;;;;;16.73;4.80;;;537.90;1766.40;;;;;;5068460;28;20020;-62
2023/12/02 01:38:49;;;;;;;14.68;5.95;;;537.90;1766.40;;;;;;5062110;28;20027;-63
2023/12/02 01:41:14;;;;;;;16.30;6.60;;;537.90;1766.40;;;;;;5068437;28;20052;-63
2023/12/02 01:43:40;;;;;;;17.48;6.18;;;537.90;1766.40;;;;;;5068332;28;20021;-63
2023/12/02 01:46:06;;;;;;;10.73;6.00;;;537.80;1792.00;;;;;;5068754;28;20035;-62
2023/12/02 01:48:34;;;;;;;59.25;32.42;;;537.80;1792.00;;;;;;5068128;28;20043;-65
2023/12/02 01:51:00;;;;;;;13.35;6.45;;;537.70;1792.00;;;;;;5068587;28;20020;-64
2023/12/02 01:53:26;;;;;;;19.15;10.23;;;537.60;1817.60;;;;;;5068686;28;20099;-63
2023/12/02 01:55:53;;;;;;;74.70;41.90;;;537.60;1792.00;;;;;;5068208;28;20238;-62
2023/12/02 01:58:19;;;;;;;71.53;39.20;;;537.60;1792.00;;;;;;5068496;28;20027;-62
2023/12/02 02:00:45;;;;;;;24.95;11.25;;;512.90;1792.00;;;;;;5068341;28;20029;-62
2023/12/02 02:03:11;;;;;;;19.95;9.55;;;512.90;1792.00;;;;;;5068111;28;20031;-64
2023/12/02 02:05:37;;;;;;;21.92;12.73;;;537.60;1792.00;;;;;;5068254;28;20040;-64
2023/12/02 02:08:02;;;;;;;21.83;11.85;;;512.90;1792.00;;;;;;5068085;28;20017;-64
2023/12/02 02:10:28;;;;;;;10.57;6.28;;;512.90;1792.00;;;;;;5068218;28;20037;-63
2023/12/02 02:12:54;;;;;;;31.38;15.63;;;537.60;1792.00;;;;;;5068140;28;20055;-63
2023/12/02 02:15:20;;;;;;;10.40;3.28;;;537.60;1792.00;;;;;;5061953;28;20021;-63
2023/12/02 02:17:46;;;;;;;11.13;6.15;;;537.70;1792.00;;;;;;5067996;28;20489;-63
2023/12/02 02:20:12;;;;;;;10.48;5.85;;;537.60;1792.00;;;;;;5067588;28;20498;-62
2023/12/02 02:22:38;;;;;;;9.52;3.58;;;537.70;1792.00;;;;;;5068342;28;20020;-63
2023/12/02 02:25:04;;;;;;;7.50;3.25;;;537.80;1792.00;;;;;;5067971;28;20033;-64
2023/12/02 02:27:31;;;;;;;11.95;4.85;;;537.70;1792.00;;;;;;5068533;28;20025;-64
2023/12/02 02:29:58;;;;;;;14.45;7.30;;;537.70;1792.00;;;;;;5068117;28;20067;-63
2023/12/02 02:32:23;;;;;;;15.18;8.50;;;537.70;1817.60;;;;;;5068141;28;20059;-63
2023/12/02 02:34:49;;;;;;;17.13;8.50;;;537.70;1817.60;;;;;;5069310;28;20447;-63
2023/12/02 02:37:15;;;;;;;14.27;4.05;;;537.70;1792.00;;;;;;5071522;28;20040;-63
2023/12/02 02:39:41;;;;;;;18.92;9.18;;;537.60;1792.00;;;;;;5071371;28;20033;-64
2023/12/02 02:42:06;;;;;;;10.82;4.65;;;537.60;1817.60;;;;;;5071785;28;20193;-63
2023/12/02 02:44:33;;;;;;;9.65;5.60;;;512.90;1792.00;;;;;;5071200;28;20580;-65
2023/12/02 02:46:59;;;;;;;9.25;4.13;;;512.90;1792.00;;;;;;5069677;28;20418;-63
2023/12/02 02:49:24;;;;;;;7.78;3.65;;;512.80;1817.60;;;;;;5067037;28;20032;-62
2023/12/02 02:51:50;;;;;;;6.93;3.25;;;512.80;1817.60;;;;;;5071460;28;20386;-65
2023/12/02 02:54:16;;;;;;;10.73;5.38;;;512.90;1792.00;;;;;;5071311;28;20048;-63
2023/12/02 02:56:46;;;;;;;7.18;3.28;;;512.90;1792.00;;;;;;5071237;28;20455;-64
2023/12/02 02:59:12;;;;;;;9.85;3.17;;;512.90;1817.60;;;;;;5070934;28;20531;-63
2023/12/02 03:01:42;;;;;;;8.57;4.05;;;512.80;1792.00;;;;;;5071247;28;20033;-63
2023/12/02 03:04:08;;;;;;;9.68;4.35;;;512.80;1792.00;;;;;;5070911;28;20024;-64
2023/12/02 03:06:34;;;;;;;10.38;4.20;;;512.80;1817.60;;;;;;5070888;28;20032;-63
2023/12/02 03:09:00;;;;;;;6.90;3.05;;;512.70;1817.60;;;;;;5070896;28;20020;-64
2023/12/02 03:11:26;;;;;;;10.02;3.35;;;512.60;1817.60;;;;;;5071171;28;20055;-63
2023/12/02 03:13:52;;;;;;;9.35;2.75;;;512.50;1817.60;;;;;;5070781;28;20522;-63
2023/12/02 03:16:18;;;;;;;5.90;2.67;;;512.50;1817.60;;;;;;5071176;28;20104;-63
2023/12/02 03:18:43;;;;;;;9.13;3.38;;;512.70;1817.60;;;;;;5066938;28;20120;-62
2023/12/02 03:21:12;;;;;;;13.73;4.10;;;512.90;1792.00;;;;;;5068555;28;20367;-63
2023/12/02 03:23:38;;;;;;;14.10;3.67;;;512.80;1792.00;;;;;;5070464;28;20044;-64
2023/12/02 03:26:06;;;;;;;6.82;2.75;;;512.80;1817.60;;;;;;5070613;28;20106;-63
2023/12/02 03:28:32;;;;;;;11.30;3.10;;;512.70;1817.60;;;;;;5070532;28;20021;-63
2023/12/02 03:30:59;;;;;;;6.78;3.60;;;512.80;1792.00;;;;;;5071098;28;20316;-63
2023/12/02 03:33:25;;;;;;;7.50;2.88;;;512.80;1792.00;;;;;;5070410;28;20019;-63
2023/12/02 03:35:51;;;;;;;16.17;3.53;;;512.80;1792.00;;;;;;5057396;28;20028;-64
2023/12/02 03:38:16;;;;;;;11.82;2.88;;;512.80;1792.00;;;;;;5070379;28;20071;-63
2023/12/02 03:40:42;;;;;;;7.65;2.97;;;512.80;1792.00;;;;;;5070312;28;20037;-63
2023/12/02 03:43:09;;;;;;;9.82;3.80;;;512.70;1792.00;;;;;;5070819;28;20021;-63
2023/12/02 03:45:34;;;;;;;6.85;2.40;;;512.70;1817.60;;;;;;5057768;28;20529;-63
2023/12/02 03:48:00;;;;;;;6.05;2.60;;;512.40;1817.60;;;;;;5069701;28;20060;-64
2023/12/02 03:50:26;;;;;;;11.40;3.30;;;512.30;1843.20;;;;;;5070146;28;20434;-65
2023/12/02 03:52:52;;;;;;;11.85;3.25;;;512.30;1843.20;;;;;;5069277;28;20048;-63
2023/12/02 03:55:20;;;;;;;8.20;2.72;;;512.50;1817.60;;;;;;5070213;28;20077;-63
2023/12/02 03:57:46;;;;;;;7.45;3.05;;;512.60;1817.60;;;;;;5065404;28;20020;-63
2023/12/02 04:00:19;;;;;;;12.93;3.38;;;512.40;1817.60;;;;;;5069842;28;20036;-63
2023/12/02 04:02:45;;;;;;;6.10;3.10;;;512.40;1817.60;;;;;;5069724;28;20029;-63
2023/12/02 04:05:13;;;;;;;7.95;2.58;;;512.30;1843.20;;;;;;5069778;28;20517;-63
2023/12/02 04:07:39;;;;;;;8.75;2.88;;;512.40;1817.60;;;;;;5069907;28;20466;-63
2023/12/02 04:10:06;;;;;;;11.18;2.83;;;512.40;1817.60;;;;;;5070138;28;20020;-63
2023/12/02 04:12:33;;;;;;;6.68;2.65;;;512.20;1843.20;;;;;;5069791;28;20132;-62
2023/12/02 04:14:59;;;;;;;9.23;3.25;;;512.10;1843.20;;;;;;5070132;28;20021;-63
2023/12/02 04:17:25;;;;;;;8.55;3.30;;;512.10;1868.80;;;;;;5069825;28;20027;-63
2023/12/02 04:19:51;;;;;;;8.52;2.97;;;512.10;1868.80;;;;;;5061178;28;20040;-64
2023/12/02 04:22:18;;;;;;;6.25;3.13;;;512.00;1868.80;;;;;;5064410;28;20044;-63
2023/12/02 04:24:47;;;;;;;11.90;3.10;;;512.00;1868.80;;;;;;5068749;28;20360;-63
2023/12/02 04:27:15;;;;;;;11.43;3.33;;;512.00;1868.80;;;;;;5061351;28;20367;-63
2023/12/02 04:29:42;;;;;;;7.78;3.25;;;512.20;1843.20;;;;;;5067040;28;20020;-63
2023/12/02 04:32:08;;;;;;;7.20;3.33;;;512.10;1843.20;;;;;;5069576;28;20031;-63
2023/12/02 04:34:35;;;;;;;11.15;3.47;;;512.10;1868.80;;;;;;5068990;28;20021;-63
2023/12/02 04:37:01;;;;;;;18.08;3.53;;;512.00;1894.40;;;;;;5068728;28;20024;-64
2023/12/02 04:39:28;;;;;;;9.15;3.20;;;487.30;1868.80;;;;;;5069237;28;20029;-63
2023/12/02 04:41:53;;;;;;;6.65;3.40;;;487.30;1894.40;;;;;;5068865;28;20051;-63
2023/12/02 04:44:20;;;;;;;7.95;3.25;;;487.30;1894.40;;;;;;5069280;28;20020;-62
2023/12/02 04:46:46;;;;;;;9.82;3.28;;;512.00;1868.80;;;;;;5069073;28;20029;-63
2023/12/02 04:49:15;;;;;;;11.25;3.63;;;512.10;1868.80;;;;;;5068854;28;20085;-64
2023/12/02 04:51:41;;;;;;;8.07;3.28;;;512.10;1868.80;;;;;;5068995;28;20089;-63
2023/12/02 04:54:06;;;;;;;10.70;3.05;;;512.10;1868.80;;;;;;5069371;28;20412;-64
2023/12/02 04:56:32;;;;;;;11.60;4.43;;;512.10;1868.80;;;;;;5069338;28;20487;-63
2023/12/02 04:58:58;;;;;;;9.18;3.65;;;512.10;1868.80;;;;;;5062782;28;20025;-62
2023/12/02 05:01:23;;;;;;;9.75;3.40;;;512.10;1868.80;;;;;;5068728;28;20032;-64
2023/12/02 05:03:49;;;;;;;7.13;3.30;;;512.00;1868.80;;;;;;5068654;28;20016;-63
2023/12/02 05:06:16;;;;;;;11.25;3.42;;;512.00;1894.40;;;;;;5056442;28;20377;-62
2023/12/02 05:08:43;;;;;;;9.52;3.75;;;487.30;1894.40;;;;;;5068616;28;20534;-63
2023/12/02 05:11:09;;;;;;;9.27;4.03;;;487.30;1894.40;;;;;;5068699;28;20044;-63
2023/12/02 05:13:34;;;;;;;11.80;4.03;;;512.00;1868.80;;;;;;5068578;28;20489;-63
2023/12/02 05:16:00;;;;;;;8.68;3.90;;;512.00;1868.80;;;;;;5068847;28;20027;-63
2023/12/02 05:18:26;;;;;;;9.05;3.72;;;512.00;1868.80;;;;;;5068621;28;20013;-62
2023/12/02 05:20:52;;;;;;;10.55;3.47;;;512.00;1868.80;;;;;;5068670;28;20248;-63
2023/12/02 05:23:18;;;;;;;10.70;3.50;;;512.00;1868.80;;;;;;5068588;28;20024;-63
2023/12/02 05:25:43;;;;;;;7.93;3.35;;;487.30;1894.40;;;;;;5068480;28;20463;-61
2023/12/02 05:28:09;;;;;;;7.40;3.03;;;487.20;1894.40;;;;;;5068546;28;20017;-63
2023/12/02 05:30:35;;;;;;;13.77;4.15;;;487.20;1894.40;;;;;;5068729;28;20103;-63
2023/12/02 05:33:01;;;;;;;10.82;3.42;;;487.10;1894.40;;;;;;5062093;28;20360;-63
2023/12/02 05:35:27;;;;;;;10.20;3.47;;;487.10;1894.40;;;;;;5065558;28;20107;-64
2023/12/02 05:37:53;;;;;;;10.93;4.43;;;487.10;1894.40;;;;;;5068316;28;20028;-64
2023/12/02 05:40:19;;;;;;;108.95;79.82;;;487.00;1920.00;;;;;;5068245;28;20050;-62
2023/12/02 05:42:44;;;;;;;130.57;89.18;;;486.90;1920.00;;;;;;5068405;28;20253;-63
2023/12/02 05:45:10;;;;;;;210.98;156.48;;;486.80;1920.00;;;;;;5068151;28;20016;-64
2023/12/02 05:47:36;;;;;;;38.53;27.17;;;486.70;1920.00;;;;;;5068624;28;20532;-64
2023/12/02 05:50:02;;;;;;;22.13;16.85;;;486.70;1945.60;;;;;;5068180;28;20113;-63
2023/12/02 05:52:28;;;;;;;19.38;7.32;;;486.70;1945.60;;;;;;5068565;28;20043;-63
2023/12/02 05:54:55;;;;;;;26.73;7.82;;;486.60;1971.20;;;;;;5068603;28;20450;-63
2023/12/02 05:57:21;;;;;;;16.88;7.53;;;486.50;1971.20;;;;;;5068230;28;20028;-63
2023/12/02 05:59:46;;;;;;;13.90;7.28;;;486.50;1945.60;;;;;;5068295;28;20219;-62
2023/12/02 06:02:12;;;;;;;10.73;6.32;;;486.60;1945.60;;;;;;5068415;28;20374;-64
2023/12/02 06:04:38;;;;;;;8.95;5.32;;;486.70;1920.00;;;;;;5068225;28;20031;-63
2023/12/02 06:07:04;;;;;;;8.40;3.70;;;486.80;1894.40;;;;;;5059436;28;20025;-63
2023/12/02 06:09:29;;;;;;;11.73;6.00;;;487.00;1894.40;;;;;;5069522;28;20934;-63
2023/12/02 06:11:55;;;;;;;16.45;11.00;;;487.10;1868.80;;;;;;5072062;28;20139;-63
2023/12/02 06:14:21;;;;;;;15.02;4.88;;;486.90;1894.40;;;;;;5059369;28;20017;-64
2023/12/02 06:16:47;;;;;;;12.20;8.60;;;487.10;1894.40;;;;;;5071856;28;20052;-64
2023/12/02 06:19:12;;;;;;;16.65;6.90;;;486.80;1894.40;;;;;;5071688;28;20070;-63
2023/12/02 06:21:38;;;;;;;8.45;5.22;;;487.10;1894.40;;;;;;5072088;28;20033;-63
2023/12/02 06:24:04;;;;;;;13.48;10.00;;;487.10;1868.80;;;;;;5071587;28;20021;-63
2023/12/02 06:26:30;;;;;;;10.73;4.82;;;487.10;1894.40;;;;;;5071089;28;20035;-64
2023/12/02 06:28:56;;;;;;;18.23;6.47;;;487.10;1868.80;;;;;;5071802;28;20017;-64
2023/12/02 06:31:22;;;;;;;13.60;6.75;;;487.20;1868.80;;;;;;5071281;28;20387;-65
2023/12/02 06:33:48;;;;;;;17.70;12.82;;;487.20;1868.80;;;;;;5071631;28;20509;-66
2023/12/02 06:36:14;;;;;;;17.58;12.30;;;487.20;1868.80;;;;;;5065311;28;20071;-63
2023/12/02 06:38:40;;;;;;;19.33;8.35;;;487.30;1868.80;;;;;;5071529;28;20021;-63
2023/12/02 06:41:06;;;;;;;13.48;8.45;;;487.30;1868.80;;;;;;5071418;28;20043;-64
2023/12/02 06:43:32;;;;;;;18.92;9.25;;;487.20;1894.40;;;;;;5071429;28;20077;-63
2023/12/02 06:45:57;;;;;;;14.55;6.82;;;487.20;1894.40;;;;;;5071695;28;20028;-63
2023/12/02 06:48:23;;;;;;;17.25;7.40;;;487.20;1894.40;;;;;;5071379;28;20054;-65
2023/12/02 06:50:49;;;;;;;12.43;8.23;;;487.20;1894.40;;;;;;5071075;28;20484;-62
2023/12/02 06:53:16;;;;;;;12.15;6.60;;;487.10;1894.40;;;;;;5070757;28;20025;-63
2023/12/02 06:55:42;;;;;;;28.50;10.15;;;487.20;1868.80;;;;;;5071325;28;20086;-63
2023/12/02 06:58:08;;;;;;;14.10;8.73;;;487.20;1868.80;;;;;;5071793;28;20409;-63
2023/12/02 07:00:34;;;;;;;18.58;8.73;;;487.30;1868.80;;;;;;5071014;28;20037;-63
2023/12/02 07:03:00;;;;;;;16.17;6.50;;;487.30;1868.80;;;;;;5071515;28;20024;-63
2023/12/02 07:05:26;;;;;;;13.00;6.70;;;512.00;1868.80;;;;;;5070718;28;20186;-64
2023/12/02 07:07:52;;;;;;;16.20;8.82;;;512.00;1843.20;;;;;;5070615;28;20490;-63
2023/12/02 07:10:18;;;;;;;20.67;12.55;;;512.00;1843.20;;;;;;5071160;28;20028;-63
2023/12/02 07:12:44;;;;;;;14.13;8.13;;;512.00;1868.80;;;;;;5070066;28;20044;-63
2023/12/02 07:15:11;;;;;;;24.95;14.60;;;512.10;1843.20;;;;;;5065813;28;20024;-63
2023/12/02 07:17:37;;;;;;;34.45;19.35;;;512.20;1843.20;;;;;;5066763;28;20033;-63
2023/12/02 07:20:03;;;;;;;41.72;23.10;;;512.30;1843.20;;;;;;5069765;28;20441;-64
2023/12/02 07:22:29;;;;;;;14.77;9.15;;;512.30;1868.80;;;;;;5069345;28;20031;-63
2023/12/02 07:24:55;;;;;;;18.67;9.77;;;512.40;1843.20;;;;;;5071058;28;20374;-62
2023/12/02 07:27:20;;;;;;;23.10;7.90;;;512.50;1817.60;;;;;;5070489;28;20016;-64
2023/12/02 07:29:46;;;;;;;21.05;10.15;;;512.60;1817.60;;;;;;5070846;28;20024;-64
2023/12/02 07:32:12;;;;;;;19.63;10.45;;;512.80;1817.60;;;;;;5070298;28;20020;-63
2023/12/02 07:34:37;;;;;;;14.13;7.07;;;512.80;1817.60;;;;;;5068924;28;20036;-62
2023/12/02 07:37:05;;;;;;;17.40;8.80;;;537.60;1817.60;;;;;;5070084;28;20069;-64
2023/12/02 07:39:30;;;;;;;23.25;15.35;;;537.70;1817.60;;;;;;5070506;28;20107;-63
2023/12/02 07:41:56;;;;;;;37.60;25.50;;;537.90;1817.60;;;;;;5070762;28;20431;-64
2023/12/02 07:44:22;;;;;;;30.30;18.85;;;538.00;1817.60;;;;;;5070309;28;20378;-64
2023/12/02 07:46:48;;;;;;;22.75;15.65;;;538.10;1817.60;;;;;;5070371;28;20111;-64
2023/12/02 07:49:13;;;;;;;22.00;11.32;;;538.30;1792.00;;;;;;5070242;28;20356;-64
2023/12/02 07:51:39;;;;;;;23.60;12.90;;;538.50;1792.00;;;;;;5065043;28;20523;-65
2023/12/02 07:54:05;;;;;;;9.35;5.78;;;538.50;1766.40;;;;;;5067290;28;20537;-65
2023/12/02 07:56:31;;;;;;;13.88;6.95;;;563.20;1766.40;;;;;;5070101;28;20478;-64
2023/12/02 07:58:56;;;;;;;23.48;15.02;;;538.50;1766.40;;;;;;5070228;28;20023;-63
2023/12/02 08:01:22;;;;;;;21.98;13.73;;;538.50;1792.00;;;;;;5070227;28;20043;-63
2023/12/02 08:03:48;;;;;;;19.85;11.13;;;538.50;1817.60;;;;;;5069842;28;20370;-64
2023/12/02 08:06:14;;;;;;;19.98;10.75;;;538.40;1817.60;;;;;;5069948;28;20066;-63
2023/12/02 08:08:39;;;;;;;19.15;10.98;;;538.30;1817.60;;;;;;5065782;28;20458;-64
2023/12/02 08:11:06;;;;;;;19.83;10.43;;;538.20;1792.00;;;;;;5061543;28;20068;-63
2023/12/02 08:13:32;;;;;;;13.55;6.70;;;538.20;1792.00;;;;;;5069263;28;20071;-63
2023/12/02 08:15:57;;;;;;;18.08;8.32;;;538.00;1792.00;;;;;;5067683;28;20060;-64
2023/12/02 08:18:23;;;;;;;13.63;8.45;;;538.10;1792.00;;;;;;5070289;28;20034;-64
2023/12/02 08:20:49;;;;;;;26.73;10.13;;;538.10;1792.00;;;;;;5069204;28;20051;-65
2023/12/02 08:23:15;;;;;;;19.08;9.55;;;538.00;1817.60;;;;;;5068625;28;20031;-63
2023/12/02 08:25:41;;;;;;;23.08;13.85;;;538.00;1792.00;;;;;;5068851;28;20401;-64
2023/12/02 08:28:07;;;;;;;16.65;7.07;;;538.00;1766.40;;;;;;5068832;28;20451;-63
2023/12/02 08:30:33;;;;;;;16.73;5.70;;;538.00;1766.40;;;;;;5068097;28;20111;-64
2023/12/02 08:32:59;;;;;;;18.70;8.90;;;538.10;1792.00;;;;;;5068838;28;20028;-63
2023/12/02 08:35:25;;;;;;;21.45;11.43;;;538.20;1766.40;;;;;;5069581;28;20060;-63
2023/12/02 08:37:51;;;;;;;26.15;14.75;;;538.20;1766.40;;;;;;5067699;28;20099;-64
2023/12/02 08:40:17;;;;;;;16.30;9.40;;;538.20;1766.40;;;;;;5068587;28;20562;-62
2023/12/02 08:42:42;;;;;;;21.20;11.73;;;538.40;1740.80;;;;;;5064831;28;20040;-63
2023/12/02 08:45:08;;;;;;;23.52;15.20;;;538.50;1740.80;;;;;;5068959;28;20024;-64
2023/12/02 08:47:34;;;;;;;23.90;16.95;;;563.40;1766.40;;;;;;5067868;28;20028;-64
2023/12/02 08:50:00;;;;;;;35.47;22.25;;;563.60;1766.40;;;;;;5067650;28;20419;-64
2023/12/02 08:52:26;;;;;;;24.98;14.63;;;588.80;1715.20;;;;;;5067049;28;20029;-60
2023/12/02 08:54:51;;;;;;;29.92;18.02;;;614.60;1664.00;;;;;;5066999;28;20043;-60
2023/12/02 08:57:17;;;;;;;28.33;16.83;;;640.40;1587.20;;;;;;5067985;28;20047;-61
2023/12/02 08:59:43;;;;;;;30.48;14.32;;;665.90;1510.40;;;;;;5068367;28;20098;-60
2023/12/02 09:02:09;;;;;;;34.70;15.93;;;691.30;1459.20;;;;;;5068279;28;20082;-63
2023/12/02 09:04:35;;;;;;;24.83;12.45;;;691.90;1433.60;;;;;;5068417;28;20024;-59
2023/12/02 09:07:01;;;;;;;20.02;12.25;;;716.80;1433.60;;;;;;5068509;28;20382;-60
2023/12/02 09:09:28;;;;;;;20.20;11.88;;;691.80;1433.60;;;;;;5067017;28;20557;-61
2023/12/02 09:11:53;;;;;;;27.67;17.08;;;717.20;1408.00;;;;;;5065058;28;20074;-62
2023/12/02 09:14:19;;;;;;;32.55;17.38;;;717.50;1408.00;;;;;;5068136;28;20043;-60
2023/12/02 09:16:48;;;;;;;24.42;16.15;;;742.70;1408.00;;;;;;5067466;28;20033;-59
2023/12/02 09:19:29;;;;;;;18.70;13.63;;;742.50;1408.00;;;;;;5067841;28;20021;-60
2023/12/02 09:21:55;;;;;;;22.73;12.73;;;717.70;1382.40;;;;;;5068128;28;20033;-58
2023/12/02 09:24:33;;;;;;;20.38;12.13;;;717.30;1408.00;;;;;;5068023;28;20021;-59
2023/12/02 09:26:59;;;;;;;17.92;9.18;;;717.00;1382.40;;;;;;5068086;28;20024;-59
2023/12/02 09:29:33;;;;;;;20.17;8.35;;;692.00;1382.40;;;;;;5068138;28;20111;-59
2023/12/02 09:32:07;;;;;;;38.17;28.75;;;691.40;1408.00;;;;;;5068411;28;20115;-59
2023/12/02 09:34:41;;;;;;;20.10;12.48;;;666.10;1433.60;;;;;;5068495;28;20097;-60
2023/12/02 09:37:33;;;;;;;22.05;8.95;;;665.70;1459.20;;;;;;5068501;28;20107;-58
2023/12/02 09:40:24;;;;;;;21.35;9.15;;;640.60;1459.20;;;;;;5060319;28;20060;-61
2023/12/02 09:43:23;;;;;;;14.90;8.10;;;640.20;1484.80;;;;;;5069113;28;20040;-59
2023/12/02 09:45:48;;;;;;;18.65;9.23;;;615.10;1510.40;;;;;;5061179;28;20027;-58
2023/12/02 09:48:24;;;;;;;25.67;11.05;;;614.90;1510.40;;;;;;5072675;28;20103;-58
2023/12/02 09:50:56;;;;;;;27.63;14.85;;;614.80;1510.40;;;;;;5050507;28;20021;-59
2023/12/02 09:53:51;;;;;;;32.25;22.73;;;614.60;1484.80;;;;;;5070099;28;20108;-58
2023/12/02 09:56:25;;;;;;;17.00;8.73;;;614.60;1484.80;;;;;;5072344;28;20036;-60
2023/12/02 09:59:22;;;;;;;242.27;174.93;;;614.60;1484.80;;;;;;5072248;28;20103;-58
2023/12/02 10:02:02;;;;;;;33.15;13.90;;;614.60;1484.80;;;;;;5056305;28;20070;-58
2023/12/02 10:04:38;;;;;;;69.72;44.40;;;614.70;1484.80;;;;;;5072413;28;20050;-58
2023/12/02 10:07:14;;;;;;;23.25;8.32;;;614.50;1484.80;;;;;;5072535;28;20117;-61
2023/12/02 10:10:09;;;;;;;14.77;6.45;;;614.60;1484.80;;;;;;5072330;28;20021;-59
2023/12/02 10:13:05;;;;;;;19.50;8.88;;;614.50;1459.20;;;;;;5071589;28;20048;-59
2023/12/02 10:15:34;;;;;;;48.83;26.48;;;614.60;1459.20;;;;;;5072190;28;20024;-59
2023/12/02 10:18:13;;;;;;;66.43;39.70;;;614.80;1484.80;;;;;;5072140;28;20409;-58
2023/12/02 10:20:41;;;;;;;35.08;20.48;;;614.80;1484.80;;;;;;5072168;28;20060;-59
2023/12/02 10:23:26;;;;;;;14.52;6.47;;;614.80;1484.80;;;;;;5069552;28;20029;-58
2023/12/02 10:26:17;;;;;;;17.33;6.22;;;615.10;1459.20;;;;;;5070856;28;20021;-59
2023/12/02 10:28:51;;;;;;;45.80;24.02;;;615.10;1459.20;;;;;;5011675;28;20042;-58
2023/12/02 10:31:26;;;;;;;27.52;12.13;;;615.10;1459.20;;;;;;5010082;28;20485;-58
2023/12/02 10:34:16;;;;;;;23.10;10.38;;;640.00;1459.20;;;;;;5009522;28;20489;-58
2023/12/02 10:36:46;;;;;;;20.25;6.15;;;640.10;1433.60;;;;;;5009360;28;20037;-58
2023/12/02 10:39:20;;;;;;;23.33;8.18;;;640.20;1484.80;;;;;;5009193;28;20033;-59
2023/12/02 10:41:58;;;;;;;29.95;12.20;;;640.10;1433.60;;;;;;5009351;28;20057;-58
2023/12/02 10:44:24;;;;;;;16.52;8.00;;;640.10;1433.60;;;;;;5009613;28;20033;-58
2023/12/02 10:46:53;;;;;;;16.45;7.55;;;640.20;1433.60;;;;;;5009241;28;20069;-59
2023/12/02 10:49:19;;;;;;;21.13;7.10;;;640.00;1433.60;;;;;;5009787;28;20086;-58
2023/12/02 10:51:50;;;;;;;16.05;7.55;;;615.20;1433.60;;;;;;5009183;28;20500;-59
2023/12/02 10:54:17;;;;;;;28.52;9.35;;;640.00;1433.60;;;;;;5009651;28;20044;-59
2023/12/02 10:56:49;;;;;;;21.05;6.93;;;640.40;1433.60;;;;;;5004410;28;20053;-58
2023/12/02 10:59:19;;;;;;;23.85;9.63;;;640.40;1408.00;;;;;;4991563;28;20172;-58
2023/12/02 11:01:45;;;;;;;17.40;7.40;;;640.80;1408.00;;;;;;4996830;28;20034;-59
2023/12/02 11:04:19;;;;;;;31.02;11.43;;;640.40;1382.40;;;;;;5009155;28;20049;-58
2023/12/02 11:06:53;;;;;;;16.98;7.05;;;640.60;1382.40;;;;;;5068002;28;20097;-57
2023/12/02 11:09:22;;;;;;;;;;;640.90;1356.80;;;;;;5071382;28;20040;-58
2023/12/02 11:11:56;;;;;;;20.50;7.50;;;665.60;1382.40;;;;;;5071129;28;20668;-58
2023/12/02 11:14:24;;;;;;;18.98;6.07;;;665.70;1408.00;;;;;;5071140;28;20020;-58
2023/12/02 11:17:06;;;;;;;27.52;10.55;;;665.60;1382.40;;;;;;5071102;28;20028;-58
2023/12/02 11:19:57;;;;;;;23.27;10.88;;;665.80;1382.40;;;;;;5071053;28;20085;-57
2023/12/02 11:22:42;;;;;;;26.48;11.75;;;666.00;1382.40;;;;;;5070535;28;20123;-58
2023/12/02 11:25:40;;;;;;;16.85;6.18;;;666.40;1433.60;;;;;;5071093;28;20478;-58
2023/12/02 11:28:19;;;;;;;14.40;5.57;;;666.50;1433.60;;;;;;5009124;28;20038;-59
2023/12/02 11:31:12;;;;;;;29.50;10.65;;;666.50;1382.40;;;;;;5008027;28;20057;-58
2023/12/02 11:34:12;;;;;;;25.20;7.80;;;666.30;1356.80;;;;;;5004462;28;20550;-58
2023/12/02 11:37:12;;;;;;;19.80;5.72;;;666.30;1331.20;;;;;;4969840;28;20023;-59
2023/12/02 11:40:12;;;;;;;15.60;6.05;;;666.30;1331.20;;;;;;4969813;28;20564;-59
2023/12/02 11:42:52;;;;;;;17.88;6.93;;;666.40;1356.80;;;;;;4969924;28;20047;-58
2023/12/02 11:45:29;;;;;;;20.52;7.20;;;666.30;1356.80;;;;;;4969308;28;20038;-58
2023/12/02 11:48:19;;;;;;;25.45;6.47;;;666.40;1356.80;;;;;;4969940;28;20027;-58
2023/12/02 11:50:53;;;;;;;20.50;7.53;;;666.20;1331.20;;;;;;4969659;28;20046;-58
2023/12/02 11:53:50;;;;;;;22.30;5.72;;;666.10;1356.80;;;;;;4969240;28;20389;-58
2023/12/02 11:56:20;;;;;;;19.02;7.20;;;665.80;1356.80;;;;;;4969588;28;20030;-59
2023/12/02 11:58:54;;;;;;;19.10;6.53;;;666.00;1331.20;;;;;;4969513;28;20039;-59
2023/12/02 12:01:46;;;;;;;14.30;5.07;;;665.90;1382.40;;;;;;4966066;28;20147;-59
2023/12/02 12:04:31;;;;;;;13.60;5.47;;;640.80;1331.20;;;;;;4988413;28;20090;-58
2023/12/02 12:07:11;;;;;;;23.45;7.20;;;640.70;1356.80;;;;;;5027377;28;20042;-58
2023/12/02 12:09:55;;;;;;;14.88;5.35;;;640.60;1356.80;;;;;;5027682;28;20100;-58
2023/12/02 12:12:23;;;;;;;13.07;4.78;;;640.60;1382.40;;;;;;5051064;28;20045;-58
2023/12/02 12:14:51;;;;;;;17.10;5.60;;;640.70;1356.80;;;;;;5069877;28;20035;-58
2023/12/02 12:17:17;;;;;;;10.18;3.28;;;640.60;1382.40;;;;;;5070001;28;20032;-58